Corder, Missouri
Current Conditions -  °F | °C
As of 11:35 AM on Saturday 25 Oct 2014 (Local Time) from KRCM Reporting Station
Moderate Fog Moderate Fog  
Wind Chill: 61°   Ceiling: 100
Heat Index: 61°   Visibility: 0.5mi
Dew Point: 61°   Wind: 3mph
Humidity: 100%   Direction: 50°NE
Pressure: 30.09"   Gusts: NA
Location:  39.1°N, 93.64°W
Report Text: KRCM 251635Z AUTO 05003KT 1/2SM FG OVC001 16/16 A3009 RMK AO2
Loading
Personal Weather Stations






























Interactive Weather Map
Tropical Storm Tracking
New forecast layout! Learn more

10-Day Weather Forecast

Advertisements
Track Severe Weather on mobile